createdAt,value
2019-05-09T00:00:04.121Z,46.03
2019-05-09T00:02:44.223Z,42.37
2019-05-09T00:05:14.379Z,32.93
2019-05-09T00:07:44.674Z,39.80
2019-05-09T00:10:14.354Z,43.73
2019-05-09T00:12:43.879Z,39.37
2019-05-09T00:15:14.042Z,33.00
2019-05-09T00:17:43.963Z,29.03
2019-05-09T00:20:20.826Z,28.70
2019-05-09T00:22:50.241Z,36.33
2019-05-09T00:25:19.718Z,26.83
2019-05-09T00:27:49.064Z,43.83
2019-05-09T00:30:22.674Z,26.70
2019-05-09T00:32:53.344Z,30.37
2019-05-09T00:35:33.826Z,20.20
2019-05-09T00:38:08.039Z,18.90
2019-05-09T00:40:37.661Z,23.03
2019-05-09T00:43:07.117Z,24.10
2019-05-09T00:45:58.373Z,31.40
2019-05-09T00:48:43.960Z,16.37
2019-05-09T00:51:14.133Z,16.63
2019-05-09T00:53:44.443Z,18.80
2019-05-09T00:56:14.120Z,27.20
2019-05-09T00:58:44.179Z,25.03
2019-05-09T01:01:15.002Z,18.40
2019-05-09T01:03:44.547Z,19.47
2019-05-09T01:06:15.856Z,18.57
2019-05-09T01:08:45.242Z,14.37
2019-05-09T01:11:15.603Z,18.20
2019-05-09T01:13:45.248Z,12.50
2019-05-09T01:16:14.671Z,16.00
2019-05-09T01:18:44.132Z,13.97
2019-05-09T01:21:13.604Z,14.57
2019-05-09T01:23:43.741Z,15.40
2019-05-09T01:26:13.416Z,13.70
2019-05-09T01:28:44.202Z,13.90
2019-05-09T01:31:13.684Z,12.53
2019-05-09T01:33:53.276Z,12.80
2019-05-09T01:36:23.476Z,14.20
2019-05-09T01:38:53.998Z,11.83
2019-05-09T01:41:30.500Z,17.47
2019-05-09T01:43:54.924Z,12.00
2019-05-09T01:46:24.708Z,12.20
2019-05-09T01:48:54.137Z,17.87
2019-05-09T01:51:23.600Z,10.60
2019-05-09T01:53:54.723Z,9.67
2019-05-09T01:56:24.017Z,13.43
2019-05-09T01:58:54.112Z,10.00
2019-05-09T02:01:24.263Z,11.90
2019-05-09T02:03:53.961Z,16.30
2019-05-09T02:06:24.397Z,11.10
2019-05-09T02:08:54.625Z,18.20
2019-05-09T02:11:38.424Z,9.03
2019-05-09T02:13:55.450Z,9.67
2019-05-09T02:16:44.384Z,12.30
2019-05-09T02:19:38.912Z,17.50
2019-05-09T02:22:25.911Z,10.80
2019-05-09T02:24:55.432Z,13.90
2019-05-09T02:27:24.791Z,9.47
2019-05-09T02:29:54.476Z,11.40
2019-05-09T02:32:24.213Z,19.60
2019-05-09T02:34:54.772Z,13.30
2019-05-09T02:37:24.491Z,11.53
2019-05-09T02:39:53.874Z,8.93
2019-05-09T02:42:23.407Z,9.80
2019-05-09T02:44:52.817Z,12.77
2019-05-09T02:47:24.078Z,10.00
2019-05-09T02:49:53.422Z,14.60
2019-05-09T02:52:23.048Z,12.60
2019-05-09T02:54:52.474Z,8.60
2019-05-09T02:57:21.853Z,10.37
2019-05-09T03:00:29.074Z,13.70
2019-05-09T03:03:19.497Z,10.47
2019-05-09T03:05:48.802Z,13.53
2019-05-09T03:08:19.149Z,21.83
2019-05-09T03:10:49.321Z,9.53
2019-05-09T03:13:19.296Z,30.00
2019-05-09T03:15:50.487Z,11.03
2019-05-09T03:18:19.810Z,11.70
2019-05-09T03:20:58.513Z,12.87
2019-05-09T03:23:28.497Z,17.93
2019-05-09T03:26:00.472Z,14.00
2019-05-09T03:28:51.525Z,17.47
2019-05-09T03:31:22.316Z,11.37
2019-05-09T03:33:51.778Z,12.93
2019-05-09T03:36:21.309Z,15.00
2019-05-09T03:38:50.638Z,12.27
2019-05-09T03:41:20.065Z,11.30
2019-05-09T03:43:49.435Z,12.47
2019-05-09T03:46:35.471Z,13.13
2019-05-09T03:49:07.475Z,20.50
2019-05-09T03:51:37.929Z,14.30
2019-05-09T03:54:08.090Z,21.17
2019-05-09T03:56:41.736Z,17.30
2019-05-09T03:59:11.110Z,18.17
2019-05-09T04:01:40.664Z,11.60
2019-05-09T04:04:10.032Z,13.03
2019-05-09T04:06:39.508Z,23.50
2019-05-09T04:09:08.947Z,12.60
2019-05-09T04:11:38.383Z,14.87
2019-05-09T04:14:11.419Z,14.47
2019-05-09T04:16:40.932Z,17.23
2019-05-09T04:19:10.281Z,13.23
2019-05-09T04:21:39.744Z,16.43
2019-05-09T04:24:09.171Z,18.37
2019-05-09T04:26:50.295Z,14.97
2019-05-09T04:29:19.699Z,13.03
2019-05-09T04:31:49.183Z,13.13
2019-05-09T04:34:18.580Z,12.30
2019-05-09T04:36:48.485Z,22.37
2019-05-09T04:39:23.353Z,23.13
2019-05-09T04:41:49.290Z,12.07
2019-05-09T04:44:49.899Z,23.30
2019-05-09T04:47:17.802Z,22.03
2019-05-09T04:49:47.957Z,12.80
2019-05-09T04:52:18.146Z,17.40
2019-05-09T04:54:48.500Z,15.27
2019-05-09T04:57:18.150Z,15.70
2019-05-09T04:59:47.708Z,20.53
2019-05-09T05:02:27.460Z,14.33
2019-05-09T05:04:58.533Z,12.47
2019-05-09T05:07:28.714Z,21.73
2019-05-09T05:09:58.920Z,16.80
2019-05-09T05:12:28.350Z,20.90
2019-05-09T05:14:58.154Z,22.00
2019-05-09T05:17:30.491Z,15.23
2019-05-09T05:20:00.434Z,26.37
2019-05-09T05:22:41.738Z,14.83
2019-05-09T05:25:11.152Z,19.13
2019-05-09T05:27:40.542Z,12.83
2019-05-09T05:30:10.084Z,18.20
2019-05-09T05:32:58.016Z,20.73
2019-05-09T05:35:32.726Z,16.40
2019-05-09T05:38:02.199Z,15.70
2019-05-09T05:40:33.702Z,18.40
2019-05-09T05:43:02.845Z,21.77
2019-05-09T05:45:37.500Z,12.97
2019-05-09T05:48:19.942Z,13.63
2019-05-09T05:50:49.411Z,17.20
2019-05-09T05:53:19.031Z,13.57
2019-05-09T05:55:52.544Z,11.17
2019-05-09T05:58:19.783Z,19.40
2019-05-09T06:00:49.331Z,12.67
2019-05-09T06:03:19.730Z,31.83
2019-05-09T06:05:51.688Z,20.20
2019-05-09T06:08:20.276Z,17.77
2019-05-09T06:10:49.799Z,19.43
2019-05-09T06:13:19.193Z,19.90
2019-05-09T06:15:48.617Z,14.93
2019-05-09T06:18:20.503Z,16.20
2019-05-09T06:20:49.960Z,16.77
2019-05-09T06:23:19.469Z,20.20
2019-05-09T06:25:48.924Z,14.30
2019-05-09T06:28:18.436Z,22.80
2019-05-09T06:30:47.943Z,16.83
2019-05-09T06:33:18.105Z,18.40
2019-05-09T06:35:48.187Z,17.27
2019-05-09T06:38:18.699Z,16.10
2019-05-09T06:40:48.356Z,25.63
2019-05-09T06:43:19.323Z,35.50
2019-05-09T06:46:08.170Z,42.03
2019-05-09T06:48:38.037Z,14.97
2019-05-09T06:51:07.525Z,43.23
2019-05-09T06:53:38.710Z,15.73
2019-05-09T06:56:08.131Z,18.13
2019-05-09T06:58:38.386Z,13.60
2019-05-09T07:01:30.362Z,19.60
2019-05-09T07:04:13.890Z,15.73
2019-05-09T07:06:49.986Z,25.97
2019-05-09T07:09:32.044Z,12.57
2019-05-09T07:12:01.522Z,23.23
2019-05-09T07:14:41.888Z,16.13
2019-05-09T07:17:11.158Z,20.37
2019-05-09T07:19:43.765Z,19.50
2019-05-09T07:22:29.116Z,11.40
2019-05-09T07:25:11.235Z,11.40
2019-05-09T07:27:41.023Z,16.57
2019-05-09T07:30:20.828Z,32.77
2019-05-09T07:33:08.604Z,13.73
2019-05-09T07:35:38.373Z,18.33
2019-05-09T07:38:08.567Z,11.23
2019-05-09T07:40:38.642Z,9.73
2019-05-09T07:43:08.426Z,14.03
2019-05-09T07:45:40.075Z,10.77
2019-05-09T07:48:09.557Z,10.73
2019-05-09T07:50:39.133Z,26.13
2019-05-09T07:53:08.991Z,9.57
2019-05-09T07:55:38.674Z,8.53
2019-05-09T07:58:08.338Z,8.03
2019-05-09T08:00:38.665Z,8.60
2019-05-09T08:03:12.609Z,13.53
2019-05-09T08:05:39.325Z,8.73
2019-05-09T08:08:11.781Z,9.03
2019-05-09T08:10:41.258Z,11.43
2019-05-09T08:13:11.964Z,7.80
2019-05-09T08:15:41.830Z,7.33
2019-05-09T08:18:11.348Z,18.63
2019-05-09T08:20:40.894Z,8.97
2019-05-09T08:23:10.291Z,6.10
2019-05-09T08:25:39.837Z,7.90
2019-05-09T08:28:09.417Z,6.03
2019-05-09T08:30:40.606Z,10.47
2019-05-09T08:33:10.555Z,7.30
2019-05-09T08:35:40.941Z,5.93
2019-05-09T08:38:10.796Z,7.30
2019-05-09T08:40:40.749Z,6.10
2019-05-09T08:43:10.215Z,6.43
2019-05-09T08:45:39.635Z,5.63
2019-05-09T08:48:09.604Z,7.27
2019-05-09T08:50:52.332Z,9.63
2019-05-09T08:53:22.182Z,5.60
2019-05-09T08:55:51.604Z,8.13
2019-05-09T08:58:20.969Z,5.80
2019-05-09T09:00:53.321Z,21.77
2019-05-09T09:03:22.822Z,12.13
2019-05-09T09:05:52.390Z,9.63
2019-05-09T09:08:21.831Z,6.77
2019-05-09T09:10:51.377Z,12.47
2019-05-09T09:13:20.909Z,10.17
2019-05-09T09:16:08.507Z,8.43
2019-05-09T09:18:21.643Z,10.67
2019-05-09T09:20:51.024Z,5.40
2019-05-09T09:23:20.436Z,4.77
2019-05-09T09:25:49.900Z,5.20
2019-05-09T09:28:19.354Z,5.10
2019-05-09T09:30:48.856Z,7.60
2019-05-09T09:33:18.235Z,4.23
2019-05-09T09:35:49.021Z,20.27
2019-05-09T09:38:18.634Z,4.37
2019-05-09T09:40:48.152Z,8.00
2019-05-09T09:43:17.798Z,11.50
2019-05-09T09:45:48.282Z,7.87
2019-05-09T09:48:18.665Z,6.67
2019-05-09T09:50:51.369Z,7.27
2019-05-09T09:53:19.280Z,12.40
2019-05-09T09:55:48.669Z,12.53
2019-05-09T09:58:19.190Z,8.07
2019-05-09T10:01:18.254Z,7.20
2019-05-09T10:03:49.009Z,10.67
2019-05-09T10:06:18.558Z,6.30
2019-05-09T10:08:49.034Z,7.00
2019-05-09T10:11:18.637Z,11.07
2019-05-09T10:13:51.747Z,12.70
2019-05-09T10:16:35.862Z,6.20
2019-05-09T10:19:18.550Z,4.40
2019-05-09T10:21:50.980Z,6.10
2019-05-09T10:24:22.596Z,15.27
2019-05-09T10:27:09.192Z,17.67
2019-05-09T10:29:39.111Z,15.80
2019-05-09T10:32:12.067Z,12.70
2019-05-09T10:34:41.568Z,5.47
2019-05-09T10:37:11.085Z,3.73
2019-05-09T10:39:40.518Z,10.20
2019-05-09T10:42:18.812Z,5.37
2019-05-09T10:44:53.877Z,11.10
2019-05-09T10:47:27.322Z,4.00
2019-05-09T10:49:58.209Z,8.93
2019-05-09T10:52:28.323Z,9.80
2019-05-09T10:54:59.088Z,3.63
2019-05-09T10:57:31.607Z,4.93
2019-05-09T10:59:59.681Z,8.27
2019-05-09T11:02:29.097Z,4.57
2019-05-09T11:04:58.509Z,5.73
2019-05-09T11:07:28.956Z,4.40
2019-05-09T11:09:59.064Z,14.37
2019-05-09T11:12:28.967Z,8.80
2019-05-09T11:14:59.364Z,3.50
2019-05-09T11:17:29.249Z,5.50
2019-05-09T11:19:59.044Z,10.73
2019-05-09T11:22:29.359Z,3.77
2019-05-09T11:24:59.161Z,6.20
2019-05-09T11:27:29.364Z,10.33
2019-05-09T11:29:58.971Z,8.80
2019-05-09T11:32:28.552Z,11.97
2019-05-09T11:34:58.081Z,4.00
2019-05-09T11:37:27.552Z,6.80
2019-05-09T11:39:58.029Z,13.43
2019-05-09T11:42:28.485Z,8.07
2019-05-09T11:44:58.374Z,6.70
2019-05-09T11:47:36.437Z,4.13
2019-05-09T11:49:58.910Z,8.10
2019-05-09T11:52:28.988Z,6.63
2019-05-09T11:54:58.570Z,4.43
2019-05-09T11:57:31.334Z,3.70
2019-05-09T11:59:59.219Z,4.80
2019-05-09T12:02:28.718Z,14.10
2019-05-09T12:04:58.227Z,2.73
2019-05-09T12:07:28.818Z,8.47
2019-05-09T12:09:59.091Z,4.00
2019-05-09T12:12:28.667Z,8.10
2019-05-09T12:14:59.237Z,5.20
2019-05-09T12:17:40.834Z,5.70
2019-05-09T12:20:09.607Z,13.80
2019-05-09T12:22:31.153Z,3.27
2019-05-09T12:25:00.621Z,8.73
2019-05-09T12:27:30.085Z,11.27
2019-05-09T12:30:00.619Z,11.40
2019-05-09T12:32:30.111Z,3.80
2019-05-09T12:34:59.533Z,3.60
2019-05-09T12:37:28.946Z,19.70
2019-05-09T12:39:58.677Z,8.40
2019-05-09T12:42:29.277Z,6.40
2019-05-09T12:44:59.217Z,3.00
2019-05-09T12:47:29.276Z,5.43
2019-05-09T12:50:02.688Z,8.40
2019-05-09T12:52:30.002Z,3.20
2019-05-09T12:55:02.562Z,5.23
2019-05-09T12:57:32.732Z,5.37
2019-05-09T13:00:02.173Z,3.70
2019-05-09T13:02:31.570Z,3.20
2019-05-09T13:05:01.089Z,3.37
2019-05-09T13:07:30.549Z,2.97
2019-05-09T13:10:00.058Z,29.33
2019-05-09T13:12:29.449Z,3.87
2019-05-09T13:14:58.945Z,5.00
2019-05-09T13:17:33.754Z,2.90
2019-05-09T13:20:03.974Z,3.50
2019-05-09T13:22:33.337Z,3.70
2019-05-09T13:25:03.132Z,4.90
2019-05-09T13:27:32.757Z,11.27
2019-05-09T13:30:02.519Z,4.90
2019-05-09T13:32:32.135Z,19.30
2019-05-09T13:35:01.716Z,3.17
2019-05-09T13:37:31.177Z,4.10
2019-05-09T13:40:00.663Z,4.07
2019-05-09T13:42:30.130Z,2.77
2019-05-09T13:44:59.550Z,5.77
2019-05-09T13:47:29.993Z,3.40
2019-05-09T13:49:59.673Z,5.30
2019-05-09T13:52:29.051Z,3.50
2019-05-09T13:54:58.785Z,5.43
2019-05-09T13:57:28.348Z,5.50
2019-05-09T13:59:59.625Z,3.53
2019-05-09T14:02:29.619Z,6.03
2019-05-09T14:04:59.261Z,3.17
2019-05-09T14:07:29.718Z,3.50
2019-05-09T14:09:59.189Z,10.80
2019-05-09T14:12:29.027Z,3.53
2019-05-09T14:14:58.849Z,3.10
2019-05-09T14:17:44.908Z,18.87
2019-05-09T14:19:59.643Z,3.67
2019-05-09T14:22:29.061Z,4.20
2019-05-09T14:24:58.701Z,6.30
2019-05-09T14:27:28.973Z,3.60
2019-05-09T14:29:59.540Z,3.50
2019-05-09T14:32:33.142Z,3.33
2019-05-09T14:35:00.379Z,3.83
2019-05-09T14:37:31.703Z,2.23
2019-05-09T14:40:04.405Z,22.03
2019-05-09T14:42:32.204Z,2.10
2019-05-09T14:45:01.612Z,3.07
2019-05-09T14:47:31.148Z,4.23
2019-05-09T14:50:00.547Z,2.90
2019-05-09T14:52:29.958Z,9.33
2019-05-09T14:54:59.318Z,7.23
2019-05-09T14:57:29.812Z,7.90
2019-05-09T14:59:59.214Z,2.80
2019-05-09T15:02:28.638Z,2.70
2019-05-09T15:04:58.676Z,4.53
2019-05-09T15:07:28.520Z,3.73
2019-05-09T15:09:59.934Z,3.80
2019-05-09T15:12:29.287Z,3.23
2019-05-09T15:14:58.780Z,2.77
2019-05-09T15:17:28.283Z,3.93
2019-05-09T15:20:00.601Z,2.83
2019-05-09T15:22:28.985Z,2.70
2019-05-09T15:24:59.127Z,3.00
2019-05-09T15:27:38.481Z,4.60
2019-05-09T15:30:08.260Z,2.63
2019-05-09T15:32:37.899Z,5.43
2019-05-09T15:35:09.001Z,4.80
2019-05-09T15:37:38.933Z,4.00
2019-05-09T15:40:09.028Z,2.30
2019-05-09T15:42:39.084Z,9.30
2019-05-09T15:45:09.320Z,3.70
2019-05-09T15:47:38.838Z,2.90
2019-05-09T15:50:19.175Z,3.03
2019-05-09T15:52:39.537Z,4.70
2019-05-09T15:55:09.844Z,4.30
2019-05-09T15:57:39.439Z,5.43
2019-05-09T16:00:11.641Z,2.37
2019-05-09T16:02:41.030Z,5.93
2019-05-09T16:05:10.874Z,3.03
2019-05-09T16:07:40.628Z,8.20
2019-05-09T16:10:10.189Z,3.30
2019-05-09T16:12:39.625Z,2.50
2019-05-09T16:15:09.188Z,2.70
2019-05-09T16:17:39.435Z,3.17
2019-05-09T16:20:09.427Z,4.20
2019-05-09T16:22:39.397Z,3.23
2019-05-09T16:25:09.411Z,3.90
2019-05-09T16:27:39.004Z,2.97
2019-05-09T16:30:09.872Z,3.90
2019-05-09T16:32:39.291Z,4.10
2019-05-09T16:35:08.870Z,4.23
2019-05-09T16:37:56.824Z,3.20
2019-05-09T16:40:09.695Z,3.40
2019-05-09T16:42:39.131Z,3.60
2019-05-09T16:45:10.095Z,3.97
2019-05-09T16:47:39.651Z,3.80
2019-05-09T16:50:12.104Z,4.17
2019-05-09T16:52:43.624Z,3.90
2019-05-09T16:55:18.083Z,3.00
2019-05-09T16:57:47.803Z,3.27
2019-05-09T17:00:31.227Z,3.43
2019-05-09T17:03:00.692Z,3.00
2019-05-09T17:05:30.107Z,4.63
2019-05-09T17:07:59.621Z,3.70
2019-05-09T17:10:29.017Z,4.77
2019-05-09T17:12:58.803Z,3.37
2019-05-09T17:15:29.277Z,3.97
2019-05-09T17:17:58.962Z,3.57
2019-05-09T17:20:38.269Z,3.63
2019-05-09T17:23:14.772Z,7.40
2019-05-09T17:25:42.087Z,5.57
2019-05-09T17:28:11.551Z,3.10
2019-05-09T17:30:41.060Z,3.37
2019-05-09T17:33:10.661Z,5.57
2019-05-09T17:35:40.038Z,18.97
2019-05-09T17:38:09.507Z,3.17
2019-05-09T17:40:39.424Z,3.10
2019-05-09T17:43:09.105Z,6.33
2019-05-09T17:45:41.876Z,4.13
2019-05-09T17:48:09.796Z,4.00
2019-05-09T17:50:39.309Z,5.10
2019-05-09T17:53:08.824Z,4.80
2019-05-09T17:55:38.441Z,4.10
2019-05-09T17:58:09.087Z,3.97
2019-05-09T18:00:38.587Z,4.17
2019-05-09T18:03:07.972Z,6.67
2019-05-09T18:05:38.978Z,4.30
2019-05-09T18:08:08.580Z,4.33
2019-05-09T18:10:38.293Z,4.83
2019-05-09T18:13:08.265Z,10.47
2019-05-09T18:15:38.235Z,5.07
2019-05-09T18:18:07.739Z,3.90
2019-05-09T18:20:37.921Z,4.50
2019-05-09T18:23:08.463Z,7.00
2019-05-09T18:25:38.111Z,4.50
2019-05-09T18:28:07.683Z,6.20
2019-05-09T18:30:38.844Z,3.83
2019-05-09T18:33:13.320Z,35.93
2019-05-09T18:35:42.837Z,4.33
2019-05-09T18:38:19.840Z,3.43
2019-05-09T18:40:49.371Z,4.27
2019-05-09T18:43:19.008Z,4.20
2019-05-09T18:45:48.729Z,4.10
2019-05-09T18:48:18.694Z,4.30
2019-05-09T18:50:48.280Z,7.43
2019-05-09T18:53:17.672Z,5.40
2019-05-09T18:55:47.039Z,4.53
2019-05-09T18:58:16.582Z,11.40
2019-05-09T19:00:46.303Z,5.13
2019-05-09T19:03:15.836Z,8.23
2019-05-09T19:05:45.231Z,5.40
2019-05-09T19:08:14.808Z,6.60
2019-05-09T19:10:44.245Z,7.90
2019-05-09T19:13:13.973Z,8.10
2019-05-09T19:16:05.976Z,5.93
2019-05-09T19:18:43.523Z,6.57
2019-05-09T19:21:28.808Z,5.17
2019-05-09T19:23:58.297Z,5.83
2019-05-09T19:26:36.696Z,4.83
2019-05-09T19:29:08.092Z,5.73
2019-05-09T19:31:38.630Z,9.20
2019-05-09T19:34:09.157Z,4.27
2019-05-09T19:36:38.614Z,6.20
2019-05-09T19:39:10.154Z,19.73
2019-05-09T19:41:40.090Z,6.70
2019-05-09T19:44:09.926Z,5.70
2019-05-09T19:46:39.379Z,6.30
2019-05-09T19:49:08.735Z,6.03
2019-05-09T19:51:38.176Z,10.90
2019-05-09T19:54:07.664Z,7.13
2019-05-09T19:56:37.191Z,26.03
2019-05-09T19:59:08.048Z,8.90
2019-05-09T20:01:38.685Z,10.10
2019-05-09T20:04:08.295Z,7.33
2019-05-09T20:06:37.839Z,14.37
2019-05-09T20:09:14.251Z,7.07
2019-05-09T20:12:05.383Z,7.13
2019-05-09T20:14:37.874Z,10.93
2019-05-09T20:17:07.375Z,12.67
2019-05-09T20:19:36.892Z,11.27
2019-05-09T20:22:06.407Z,10.47
2019-05-09T20:24:35.841Z,10.53
2019-05-09T20:27:05.424Z,10.03
2019-05-09T20:29:34.800Z,10.73
2019-05-09T20:32:04.532Z,10.50
2019-05-09T20:34:34.022Z,9.10
2019-05-09T20:37:03.432Z,10.07
2019-05-09T20:39:33.052Z,11.43
2019-05-09T20:42:02.734Z,9.60
2019-05-09T20:44:32.312Z,9.23
2019-05-09T20:47:02.065Z,11.07
2019-05-09T20:49:31.595Z,9.70
2019-05-09T20:52:01.293Z,10.47
2019-05-09T20:54:30.833Z,10.93
2019-05-09T20:57:00.535Z,12.70
2019-05-09T20:59:30.279Z,29.47
2019-05-09T21:01:59.954Z,11.10
2019-05-09T21:04:29.711Z,14.80
2019-05-09T21:06:59.388Z,10.73
2019-05-09T21:09:28.995Z,9.23
2019-05-09T21:11:58.821Z,11.97
2019-05-09T21:14:28.485Z,10.33
2019-05-09T21:16:58.141Z,16.00
2019-05-09T21:19:27.755Z,14.03
2019-05-09T21:21:57.398Z,10.93
2019-05-09T21:24:27.203Z,10.33
2019-05-09T21:26:56.823Z,10.10
2019-05-09T21:29:26.401Z,17.77
2019-05-09T21:31:56.061Z,13.90
2019-05-09T21:34:25.824Z,11.23
2019-05-09T21:36:55.344Z,17.43
2019-05-09T21:39:24.732Z,14.73
2019-05-09T21:41:54.173Z,11.93
2019-05-09T21:44:23.574Z,12.10
2019-05-09T21:46:53.115Z,10.73
2019-05-09T21:49:22.705Z,9.40
2019-05-09T21:51:52.165Z,10.30
2019-05-09T21:54:21.624Z,11.43
2019-05-09T21:56:51.071Z,15.00
2019-05-09T21:59:20.455Z,12.60
2019-05-09T22:01:50.012Z,9.63
2019-05-09T22:04:19.453Z,11.37
2019-05-09T22:06:49.041Z,12.87
2019-05-09T22:09:18.632Z,11.93
2019-05-09T22:11:48.181Z,12.60
2019-05-09T22:14:17.661Z,30.27
2019-05-09T22:16:48.724Z,9.30
2019-05-09T22:19:18.208Z,15.53
2019-05-09T22:21:47.653Z,13.90
2019-05-09T22:24:17.035Z,10.30
2019-05-09T22:26:46.751Z,10.60
2019-05-09T22:29:16.889Z,13.30
2019-05-09T22:31:46.373Z,8.90
2019-05-09T22:34:15.821Z,16.93
2019-05-09T22:36:45.333Z,11.30
2019-05-09T22:39:14.758Z,20.73
2019-05-09T22:41:44.355Z,11.80
2019-05-09T22:44:13.870Z,38.67
2019-05-09T22:46:43.290Z,23.73
2019-05-09T22:49:12.704Z,11.00
2019-05-09T22:51:42.154Z,11.37
2019-05-09T22:54:13.186Z,24.37
2019-05-09T22:56:42.827Z,11.27
2019-05-09T22:59:12.332Z,20.10
2019-05-09T23:01:41.891Z,14.17
2019-05-09T23:04:11.348Z,12.63
2019-05-09T23:06:40.710Z,13.07
2019-05-09T23:09:10.209Z,16.20
2019-05-09T23:11:40.927Z,12.50
2019-05-09T23:14:10.449Z,17.90
2019-05-09T23:16:41.291Z,15.83
2019-05-09T23:19:10.744Z,13.57
2019-05-09T23:21:40.190Z,17.70
2019-05-09T23:24:26.505Z,19.00
2019-05-09T23:26:42.839Z,18.97
2019-05-09T23:29:12.357Z,15.77
2019-05-09T23:32:06.713Z,21.07
2019-05-09T23:34:36.207Z,18.27
2019-05-09T23:37:05.552Z,19.33
2019-05-09T23:39:39.763Z,18.83
2019-05-09T23:42:09.250Z,28.07
2019-05-09T23:44:38.773Z,30.83
2019-05-09T23:47:08.288Z,23.90
2019-05-09T23:49:37.849Z,19.03
2019-05-09T23:52:07.165Z,18.23
2019-05-09T23:54:54.401Z,23.90
2019-05-09T23:57:41.532Z,24.70
